« Back
NWS Peachtree City, Ga » Text Product » AHN Terminal Aerodrome Forecast


Printer-friendly Version
Current Version              Previous Versions:   1  2  3  4  5  6  7  8  9  

Terminal Aerodrome Forecast

682
FTUS42 KFFC 242320
TAFAHN
TAF
KAHN 242320Z 2500/2524 VRB03KT P6SM FEW080
     FM251500 25005KT P6SM FEW050
     FM251700 22007KT P6SM FEW060=

USA.gov is the U.S. government's official web portal to all federal, state and local government web resources and services.